createdAt,value
2022-11-17T00:01:29.348Z,15.15
2022-11-17T00:03:57.431Z,15.16
2022-11-17T00:06:25.365Z,14.97
2022-11-17T00:08:54.171Z,14.93
2022-11-17T00:11:23.507Z,15.05
2022-11-17T00:14:08.787Z,14.96
2022-11-17T00:16:36.863Z,15.05
2022-11-17T00:19:22.141Z,15.06
2022-11-17T00:21:50.449Z,15.08
2022-11-17T00:24:18.402Z,15.24
2022-11-17T00:29:41.792Z,15.22
2022-11-17T00:32:30.734Z,15.12
2022-11-17T00:34:58.821Z,15.15
2022-11-17T00:37:28.674Z,15.13
2022-11-17T00:40:00.666Z,15.01
2022-11-17T00:42:29.236Z,15.06
2022-11-17T00:44:58.686Z,15.06
2022-11-17T00:47:26.677Z,14.96
2022-11-17T00:49:54.825Z,15.05
2022-11-17T00:52:22.973Z,15.02
2022-11-17T00:54:51.170Z,15.12
2022-11-17T00:57:19.139Z,15.13
2022-11-17T00:59:47.083Z,15.22
2022-11-17T01:02:16.404Z,15.10
2022-11-17T01:04:44.343Z,15.06
2022-11-17T01:07:12.372Z,14.85
2022-11-17T01:09:40.588Z,14.85
2022-11-17T01:12:08.658Z,14.84
2022-11-17T01:14:36.838Z,14.99
2022-11-17T01:17:04.901Z,15.13
2022-11-17T01:19:34.499Z,15.17
2022-11-17T01:22:02.469Z,15.22
2022-11-17T01:24:30.622Z,15.29
2022-11-17T01:26:58.552Z,15.28
2022-11-17T01:29:26.520Z,15.18
2022-11-17T01:31:54.734Z,15.27
2022-11-17T01:34:22.680Z,15.32
2022-11-17T01:37:09.778Z,15.31
2022-11-17T01:39:37.736Z,15.24
2022-11-17T01:42:12.861Z,15.20
2022-11-17T01:45:01.967Z,15.13
2022-11-17T01:47:38.959Z,14.94
2022-11-17T01:50:11.692Z,14.88
2022-11-17T01:52:42.955Z,14.63
2022-11-17T01:55:12.335Z,14.65
2022-11-17T01:57:46.246Z,14.75
2022-11-17T02:00:15.324Z,14.81
2022-11-17T02:02:44.831Z,14.84
2022-11-17T02:05:23.733Z,14.86
2022-11-17T02:07:55.877Z,14.84
2022-11-17T02:10:23.890Z,14.85
2022-11-17T02:12:53.378Z,14.89
2022-11-17T02:15:22.168Z,14.96
2022-11-17T02:17:52.429Z,14.91
2022-11-17T02:20:29.229Z,14.94
2022-11-17T02:23:19.780Z,15.02
2022-11-17T02:26:07.738Z,14.92
2022-11-17T02:28:43.421Z,15.03
2022-11-17T02:31:23.467Z,15.08
2022-11-17T02:33:59.064Z,15.06
2022-11-17T02:36:34.336Z,15.19
2022-11-17T02:39:11.075Z,15.26
2022-11-17T02:41:48.000Z,15.26
2022-11-17T02:44:25.749Z,15.20
2022-11-17T02:46:59.140Z,15.26
2022-11-17T02:49:30.879Z,15.29
2022-11-17T02:52:00.594Z,15.32
2022-11-17T02:54:31.458Z,15.30
2022-11-17T02:56:59.710Z,15.27
2022-11-17T02:59:32.441Z,15.27
2022-11-17T03:02:29.511Z,15.22
2022-11-17T03:05:10.662Z,15.24
2022-11-17T03:07:52.806Z,15.10
2022-11-17T03:10:24.664Z,15.03
2022-11-17T03:13:01.042Z,14.95
2022-11-17T03:15:42.537Z,15.00
2022-11-17T03:18:19.959Z,14.96
2022-11-17T03:20:59.067Z,15.01
2022-11-17T03:23:34.450Z,14.79
2022-11-17T03:26:06.645Z,14.65
2022-11-17T03:28:35.573Z,14.76
2022-11-17T03:31:09.371Z,14.84
2022-11-17T03:33:41.264Z,14.95
2022-11-17T03:36:13.541Z,14.99
2022-11-17T03:38:48.198Z,15.07
2022-11-17T03:41:19.048Z,15.11
2022-11-17T03:43:51.944Z,15.14
2022-11-17T03:46:23.980Z,15.16
2022-11-17T03:48:56.636Z,15.18
2022-11-17T03:51:27.873Z,15.20
2022-11-17T03:53:56.811Z,15.06
2022-11-17T03:56:35.683Z,14.94
2022-11-17T03:59:11.314Z,14.95
2022-11-17T04:01:41.227Z,15.11
2022-11-17T04:04:15.616Z,15.12
2022-11-17T04:06:43.751Z,15.13
2022-11-17T04:09:11.784Z,14.90
2022-11-17T04:11:57.074Z,15.04
2022-11-17T04:14:42.345Z,15.09
2022-11-17T04:17:11.833Z,14.86
2022-11-17T04:19:39.897Z,15.04
2022-11-17T04:22:07.859Z,14.98
2022-11-17T04:24:36.008Z,14.89
2022-11-17T04:27:21.692Z,15.10
2022-11-17T04:29:49.661Z,15.22
2022-11-17T04:32:18.937Z,14.92
2022-11-17T04:34:46.848Z,15.11
2022-11-17T04:37:18.356Z,15.25
2022-11-17T04:39:46.845Z,15.27
2022-11-17T04:42:14.120Z,14.73
2022-11-17T04:44:42.136Z,14.88
2022-11-17T04:47:10.064Z,15.04
2022-11-17T04:49:39.428Z,15.10
2022-11-17T04:52:07.580Z,15.01
2022-11-17T04:54:35.533Z,14.99
2022-11-17T04:57:03.663Z,15.14
2022-11-17T04:59:31.591Z,14.96
2022-11-17T05:02:05.313Z,15.07
2022-11-17T05:04:51.611Z,15.16
2022-11-17T05:07:20.988Z,15.13
2022-11-17T05:09:48.926Z,15.20
2022-11-17T05:12:34.792Z,15.26
2022-11-17T05:15:02.924Z,15.26
2022-11-17T05:17:29.820Z,15.34
2022-11-17T05:19:57.792Z,15.43
2022-11-17T05:22:44.806Z,15.48
2022-11-17T05:25:12.737Z,15.47
2022-11-17T05:27:40.887Z,15.37
2022-11-17T05:30:10.430Z,15.27
2022-11-17T05:32:38.579Z,15.35
2022-11-17T05:35:07.469Z,15.40
2022-11-17T05:37:36.785Z,15.39
2022-11-17T05:40:05.403Z,15.38
2022-11-17T05:42:34.266Z,15.43
2022-11-17T05:45:02.281Z,15.48
2022-11-17T05:47:30.184Z,15.47
2022-11-17T05:49:58.095Z,15.08
2022-11-17T05:52:26.244Z,14.91
2022-11-17T05:54:55.786Z,14.71
2022-11-17T05:57:28.265Z,14.83
2022-11-17T06:00:04.513Z,14.83
2022-11-17T06:02:38.113Z,14.70
2022-11-17T06:05:07.162Z,14.81
2022-11-17T06:07:36.803Z,14.72
2022-11-17T06:10:07.499Z,14.90
2022-11-17T06:12:35.571Z,14.94
2022-11-17T06:15:03.584Z,14.88
2022-11-17T06:17:36.714Z,14.71
2022-11-17T06:20:08.348Z,14.89
2022-11-17T06:22:37.030Z,14.79
2022-11-17T06:25:09.477Z,14.29
2022-11-17T06:27:40.192Z,14.30
2022-11-17T06:30:09.164Z,14.44
2022-11-17T06:32:39.940Z,14.71
2022-11-17T06:35:10.163Z,14.52
2022-11-17T06:37:38.153Z,14.57
2022-11-17T06:40:10.053Z,14.42
2022-11-17T06:42:58.001Z,14.49
2022-11-17T06:45:26.342Z,14.55
2022-11-17T06:47:55.136Z,14.52
2022-11-17T06:50:23.219Z,14.35
2022-11-17T06:52:51.375Z,14.28
2022-11-17T06:55:21.038Z,14.55
2022-11-17T06:57:53.159Z,14.72
2022-11-17T07:00:22.384Z,14.85
2022-11-17T07:02:50.523Z,14.74
2022-11-17T07:05:18.517Z,14.90
2022-11-17T07:07:46.562Z,14.92
2022-11-17T07:10:14.528Z,14.76
2022-11-17T07:12:43.766Z,14.88
2022-11-17T07:15:12.530Z,15.00
2022-11-17T07:17:40.563Z,14.94
2022-11-17T07:20:10.503Z,14.56
2022-11-17T07:22:38.765Z,14.32
2022-11-17T07:25:07.407Z,14.40
2022-11-17T07:27:35.373Z,14.69
2022-11-17T07:30:05.277Z,14.56
2022-11-17T07:32:34.343Z,14.60
2022-11-17T07:35:05.780Z,14.56
2022-11-17T07:37:34.377Z,14.49
2022-11-17T07:40:02.353Z,14.81
2022-11-17T07:42:30.297Z,15.03
2022-11-17T07:44:58.106Z,15.25
2022-11-17T07:47:27.903Z,15.16
2022-11-17T07:49:56.099Z,15.34
2022-11-17T07:52:23.922Z,15.57
2022-11-17T07:54:52.010Z,15.76
2022-11-17T07:57:21.138Z,15.59
2022-11-17T07:59:49.427Z,15.64
2022-11-17T08:02:17.389Z,15.80
2022-11-17T08:04:46.588Z,15.98
2022-11-17T08:07:14.795Z,15.84
2022-11-17T08:09:42.815Z,15.60
2022-11-17T08:12:10.943Z,15.73
2022-11-17T08:14:41.315Z,15.88
2022-11-17T08:17:09.598Z,16.05
2022-11-17T08:19:37.460Z,16.01
2022-11-17T08:22:06.927Z,15.93
2022-11-17T08:24:34.984Z,15.68
2022-11-17T08:27:03.286Z,15.85
2022-11-17T08:29:31.402Z,15.83
2022-11-17T08:31:59.324Z,16.05
2022-11-17T08:34:27.365Z,16.24
2022-11-17T08:36:55.223Z,16.12
2022-11-17T08:39:24.603Z,16.17
2022-11-17T08:41:52.975Z,16.46
2022-11-17T08:44:22.257Z,16.40
2022-11-17T08:46:50.206Z,16.58
2022-11-17T08:49:18.066Z,16.76
2022-11-17T08:51:45.895Z,16.88
2022-11-17T08:54:14.030Z,16.82
2022-11-17T08:56:44.666Z,17.25
2022-11-17T08:59:13.392Z,17.43
2022-11-17T09:01:41.941Z,17.48
2022-11-17T09:04:09.886Z,17.36
2022-11-17T09:06:37.912Z,17.37
2022-11-17T09:09:06.069Z,17.38
2022-11-17T09:11:34.183Z,17.42
2022-11-17T09:14:03.743Z,17.42
2022-11-17T09:16:31.646Z,17.27
2022-11-17T09:18:59.773Z,17.37
2022-11-17T09:21:27.855Z,17.47
2022-11-17T09:23:56.062Z,17.56
2022-11-17T09:26:24.166Z,17.59
2022-11-17T09:28:52.358Z,17.53
2022-11-17T09:31:23.408Z,17.72
2022-11-17T09:33:51.409Z,17.66
2022-11-17T09:36:19.444Z,17.73
2022-11-17T09:38:48.068Z,17.86
2022-11-17T09:41:26.287Z,17.19
2022-11-17T09:44:09.447Z,17.31
2022-11-17T09:46:52.331Z,17.50
2022-11-17T09:49:32.519Z,17.43
2022-11-17T09:52:08.421Z,17.15
2022-11-17T09:54:49.731Z,17.18
2022-11-17T09:57:26.004Z,17.20
2022-11-17T10:00:03.715Z,17.30
2022-11-17T10:02:33.493Z,17.32
2022-11-17T10:05:01.903Z,17.24
2022-11-17T10:07:33.182Z,17.20
2022-11-17T10:10:04.511Z,17.50
2022-11-17T10:12:39.979Z,17.65
2022-11-17T10:15:22.909Z,17.88
2022-11-17T10:17:53.499Z,17.81
2022-11-17T10:20:21.973Z,17.92
2022-11-17T10:22:53.033Z,17.76
2022-11-17T10:25:37.620Z,17.96
2022-11-17T10:28:07.123Z,18.18
2022-11-17T10:30:35.204Z,18.35
2022-11-17T10:33:05.127Z,18.54
2022-11-17T10:35:35.083Z,18.45
2022-11-17T10:38:06.955Z,18.59
2022-11-17T10:40:49.112Z,18.74
2022-11-17T10:43:27.171Z,18.79
2022-11-17T10:45:57.770Z,18.88
2022-11-17T10:48:29.914Z,18.73
2022-11-17T10:51:00.068Z,18.68
2022-11-17T10:53:43.485Z,18.60
2022-11-17T10:56:16.923Z,18.33
2022-11-17T10:58:59.438Z,18.35
2022-11-17T11:01:32.712Z,18.42
2022-11-17T11:04:02.686Z,18.29
2022-11-17T11:06:32.976Z,18.35
2022-11-17T11:09:04.500Z,18.77
2022-11-17T11:11:47.164Z,19.01
2022-11-17T11:14:21.123Z,19.19
2022-11-17T11:16:51.001Z,18.79
2022-11-17T11:19:21.872Z,18.79
2022-11-17T11:22:01.943Z,19.03
2022-11-17T11:24:40.331Z,19.23
2022-11-17T11:27:24.856Z,18.90
2022-11-17T11:30:02.707Z,18.92
2022-11-17T11:32:41.854Z,18.96
2022-11-17T11:35:42.141Z,18.91
2022-11-17T11:38:25.218Z,18.81
2022-11-17T11:41:06.418Z,19.06
2022-11-17T11:43:45.418Z,19.16
2022-11-17T11:46:18.973Z,19.14
2022-11-17T11:48:50.214Z,18.87
2022-11-17T11:51:21.473Z,18.78
2022-11-17T11:53:57.918Z,18.43
2022-11-17T11:56:32.978Z,18.53
2022-11-17T11:59:06.451Z,18.26
2022-11-17T12:01:43.752Z,18.36
2022-11-17T12:04:30.821Z,18.59
2022-11-17T12:07:07.403Z,18.50
2022-11-17T12:09:57.163Z,18.70
2022-11-17T12:12:31.519Z,18.89
2022-11-17T12:15:12.940Z,18.93
2022-11-17T12:17:59.103Z,18.75
2022-11-17T12:21:02.602Z,18.68
2022-11-17T12:23:42.587Z,18.67
2022-11-17T12:26:22.825Z,18.64
2022-11-17T12:28:50.807Z,18.81
2022-11-17T12:31:43.128Z,18.60
2022-11-17T12:34:22.586Z,18.88
2022-11-17T12:37:22.992Z,18.96
2022-11-17T12:40:02.884Z,18.97
2022-11-17T12:42:33.693Z,18.87
2022-11-17T12:45:12.596Z,18.37
2022-11-17T12:47:42.156Z,18.13
2022-11-17T12:50:39.800Z,18.03
2022-11-17T12:53:20.822Z,18.25
2022-11-17T12:56:02.566Z,18.29
2022-11-17T12:58:41.235Z,18.36
2022-11-17T13:01:18.173Z,18.77
2022-11-17T13:03:53.815Z,18.80
2022-11-17T13:06:36.769Z,18.78
2022-11-17T13:09:07.728Z,18.85
2022-11-17T13:11:36.563Z,18.55
2022-11-17T13:14:10.854Z,18.65
2022-11-17T13:16:45.536Z,18.88
2022-11-17T13:19:38.491Z,18.57
2022-11-17T13:22:14.906Z,18.45
2022-11-17T13:24:45.045Z,18.49
2022-11-17T13:27:24.313Z,18.60
2022-11-17T13:29:54.100Z,18.43
2022-11-17T13:32:28.377Z,18.50
2022-11-17T13:35:00.584Z,18.70
2022-11-17T13:37:30.114Z,18.75
2022-11-17T13:40:00.960Z,18.45
2022-11-17T13:42:32.307Z,18.51
2022-11-17T13:45:03.856Z,18.76
2022-11-17T13:47:47.541Z,18.89
2022-11-17T13:50:33.216Z,19.02
2022-11-17T13:53:03.837Z,19.10
2022-11-17T13:55:32.704Z,18.96
2022-11-17T13:58:03.136Z,18.77
2022-11-17T14:00:33.658Z,18.71
2022-11-17T14:03:03.387Z,18.79
2022-11-17T14:05:38.909Z,18.83
2022-11-17T14:08:27.176Z,18.64
2022-11-17T14:11:14.446Z,18.24
2022-11-17T14:13:45.399Z,17.99
2022-11-17T14:16:25.767Z,17.95
2022-11-17T14:19:00.192Z,17.99
2022-11-17T14:21:29.308Z,17.88
2022-11-17T14:24:06.428Z,17.66
2022-11-17T14:26:34.587Z,17.85
2022-11-17T14:29:03.293Z,17.86
2022-11-17T14:31:33.421Z,17.67
2022-11-17T14:34:01.682Z,17.50
2022-11-17T14:36:30.708Z,17.55
2022-11-17T14:38:59.309Z,17.40
2022-11-17T14:41:27.305Z,17.54
2022-11-17T14:43:55.421Z,17.30
2022-11-17T14:46:25.701Z,17.29
2022-11-17T14:48:56.326Z,17.35
2022-11-17T14:51:24.504Z,17.43
2022-11-17T14:53:52.677Z,17.44
2022-11-17T14:56:22.749Z,17.29
2022-11-17T14:58:55.494Z,17.03
2022-11-17T15:01:25.557Z,16.82
2022-11-17T15:03:55.670Z,16.66
2022-11-17T15:06:24.163Z,16.78
2022-11-17T15:08:55.246Z,16.79
2022-11-17T15:11:24.343Z,16.63
2022-11-17T15:13:52.439Z,16.56
2022-11-17T15:16:20.574Z,16.60
2022-11-17T15:18:49.411Z,16.77
2022-11-17T15:21:18.950Z,16.77
2022-11-17T15:23:46.898Z,16.65
2022-11-17T15:26:17.036Z,16.41
2022-11-17T15:28:45.112Z,16.28
2022-11-17T15:31:14.637Z,16.32
2022-11-17T15:33:44.059Z,16.47
2022-11-17T15:36:13.963Z,16.46
2022-11-17T15:38:43.335Z,16.22
2022-11-17T15:41:12.673Z,16.03
2022-11-17T15:43:42.066Z,15.87
2022-11-17T15:46:12.241Z,15.55
2022-11-17T15:48:43.025Z,15.80
2022-11-17T15:51:13.098Z,15.92
2022-11-17T15:53:41.976Z,15.58
2022-11-17T15:56:13.557Z,15.47
2022-11-17T15:58:43.273Z,14.98
2022-11-17T16:01:13.560Z,15.06
2022-11-17T16:03:43.067Z,14.88
2022-11-17T16:06:12.032Z,14.96
2022-11-17T16:08:40.679Z,15.26
2022-11-17T16:11:09.195Z,15.42
2022-11-17T16:13:38.620Z,15.58
2022-11-17T16:16:07.847Z,15.58
2022-11-17T16:18:38.524Z,15.61
2022-11-17T16:21:08.141Z,15.66
2022-11-17T16:23:40.298Z,15.61
2022-11-17T16:26:09.094Z,15.67
2022-11-17T16:28:38.858Z,15.56
2022-11-17T16:31:14.865Z,15.35
2022-11-17T16:33:48.251Z,15.39
2022-11-17T16:36:16.521Z,15.43
2022-11-17T16:38:59.686Z,15.15
2022-11-17T16:41:32.252Z,14.99
2022-11-17T16:44:02.237Z,15.11
2022-11-17T16:46:31.940Z,15.12
2022-11-17T16:49:03.688Z,15.12
2022-11-17T16:51:32.542Z,15.00
2022-11-17T16:54:02.185Z,14.99
2022-11-17T16:56:30.838Z,14.75
2022-11-17T16:58:59.808Z,14.92
2022-11-17T17:01:31.441Z,14.90
2022-11-17T17:04:01.435Z,14.72
2022-11-17T17:06:29.911Z,14.62
2022-11-17T17:08:59.939Z,14.44
2022-11-17T17:11:29.742Z,14.23
2022-11-17T17:13:57.861Z,13.67
2022-11-17T17:16:25.844Z,13.69
2022-11-17T17:18:59.254Z,13.52
2022-11-17T17:21:28.510Z,13.32
2022-11-17T17:23:56.770Z,13.36
2022-11-17T17:26:27.084Z,13.23
2022-11-17T17:28:57.515Z,13.08
2022-11-17T17:31:27.165Z,12.81
2022-11-17T17:33:56.914Z,12.90
2022-11-17T17:36:26.456Z,12.62
2022-11-17T17:38:56.581Z,12.21
2022-11-17T17:41:26.877Z,12.18
2022-11-17T17:43:59.230Z,12.11
2022-11-17T17:46:29.783Z,12.00
2022-11-17T17:48:59.786Z,11.90
2022-11-17T17:51:29.467Z,12.01
2022-11-17T17:54:01.096Z,12.10
2022-11-17T17:56:30.787Z,12.19
2022-11-17T17:58:59.508Z,12.31
2022-11-17T18:01:29.001Z,12.29
2022-11-17T18:04:04.335Z,12.16
2022-11-17T18:06:35.970Z,12.11
2022-11-17T18:09:04.653Z,12.06
2022-11-17T18:11:32.896Z,12.14
2022-11-17T18:14:01.300Z,12.09
2022-11-17T18:16:31.503Z,12.07
2022-11-17T18:19:02.429Z,12.09
2022-11-17T18:21:31.433Z,12.08
2022-11-17T18:24:01.458Z,12.12
2022-11-17T18:26:32.501Z,12.19
2022-11-17T18:29:03.649Z,12.39
2022-11-17T18:31:33.947Z,12.37
2022-11-17T18:34:05.634Z,12.30
2022-11-17T18:36:34.824Z,12.26
2022-11-17T18:39:03.550Z,12.26
2022-11-17T18:41:33.913Z,12.20
2022-11-17T18:44:02.590Z,12.19
2022-11-17T18:46:32.651Z,12.25
2022-11-17T18:49:01.274Z,12.11
2022-11-17T18:51:34.189Z,12.19
2022-11-17T18:54:03.012Z,12.07
2022-11-17T18:56:34.331Z,12.05
2022-11-17T18:59:02.658Z,12.08
2022-11-17T19:01:31.702Z,12.19
2022-11-17T19:04:01.851Z,12.25
2022-11-17T19:06:32.208Z,12.35
2022-11-17T19:09:01.344Z,12.20
2022-11-17T19:11:32.906Z,12.11
2022-11-17T19:14:03.005Z,11.91
2022-11-17T19:16:32.029Z,12.01
2022-11-17T19:19:00.895Z,12.04
2022-11-17T19:21:30.633Z,12.26
2022-11-17T19:24:04.355Z,12.38
2022-11-17T19:26:34.021Z,12.29
2022-11-17T19:29:03.891Z,12.42
2022-11-17T19:31:32.190Z,12.26
2022-11-17T19:34:01.470Z,12.30
2022-11-17T19:36:31.578Z,12.37
2022-11-17T19:39:02.467Z,12.32
2022-11-17T19:41:32.721Z,12.20
2022-11-17T19:44:04.060Z,12.23
2022-11-17T19:46:35.002Z,12.23
2022-11-17T19:49:04.926Z,12.33
2022-11-17T19:51:34.378Z,12.38
2022-11-17T19:54:05.916Z,12.57
2022-11-17T19:56:35.563Z,12.60
2022-11-17T19:59:04.730Z,12.62
2022-11-17T20:01:34.379Z,12.76
2022-11-17T20:04:03.020Z,12.84
2022-11-17T20:06:37.001Z,12.66
2022-11-17T20:09:10.021Z,12.74
2022-11-17T20:11:38.671Z,12.65
2022-11-17T20:14:06.619Z,12.75
2022-11-17T20:16:34.901Z,12.37
2022-11-17T20:19:04.101Z,12.45
2022-11-17T20:21:33.668Z,12.58
2022-11-17T20:24:02.208Z,12.35
2022-11-17T20:26:33.567Z,12.32
2022-11-17T20:29:02.252Z,12.46
2022-11-17T20:31:31.887Z,12.49
2022-11-17T20:34:01.469Z,12.54
2022-11-17T20:36:30.884Z,12.60
2022-11-17T20:39:00.791Z,12.44
2022-11-17T20:41:29.574Z,12.53
2022-11-17T20:44:01.870Z,12.67
2022-11-17T20:46:30.099Z,12.35
2022-11-17T20:48:58.290Z,12.56
2022-11-17T20:51:27.014Z,12.58
2022-11-17T20:53:55.171Z,12.51
2022-11-17T20:56:23.688Z,12.65
2022-11-17T20:58:51.712Z,12.53
2022-11-17T21:01:23.061Z,12.43
2022-11-17T21:03:51.269Z,12.46
2022-11-17T21:06:22.975Z,12.62
2022-11-17T21:08:51.953Z,12.60
2022-11-17T21:11:35.599Z,12.69
2022-11-17T21:14:04.443Z,12.56
2022-11-17T21:16:34.788Z,12.56
2022-11-17T21:19:02.744Z,12.39
2022-11-17T21:21:30.763Z,12.38
2022-11-17T21:23:58.860Z,12.43
2022-11-17T21:26:27.752Z,12.37
2022-11-17T21:28:56.033Z,12.29
2022-11-17T21:31:26.210Z,12.54
2022-11-17T21:33:56.879Z,12.39
2022-11-17T21:36:26.723Z,12.44
2022-11-17T21:38:55.369Z,12.59
2022-11-17T21:41:25.069Z,12.59
2022-11-17T21:43:55.333Z,12.46
2022-11-17T21:46:25.374Z,12.37
2022-11-17T21:48:56.290Z,12.41
2022-11-17T21:51:26.513Z,12.49
2022-11-17T21:53:55.283Z,12.45
2022-11-17T21:56:26.597Z,12.29
2022-11-17T21:58:56.209Z,12.25
2022-11-17T22:01:24.527Z,12.12
2022-11-17T22:03:52.947Z,12.17
2022-11-17T22:06:23.921Z,12.09
2022-11-17T22:08:52.234Z,12.09
2022-11-17T22:11:35.214Z,12.01
2022-11-17T22:14:05.619Z,11.95
2022-11-17T22:16:34.405Z,12.05
2022-11-17T22:19:03.001Z,12.27
2022-11-17T22:21:32.844Z,12.32
2022-11-17T22:24:01.122Z,12.21
2022-11-17T22:26:29.099Z,12.10
2022-11-17T22:28:57.377Z,12.19
2022-11-17T22:31:26.094Z,12.20
2022-11-17T22:33:54.612Z,12.27
2022-11-17T22:36:22.873Z,12.17
2022-11-17T22:38:53.902Z,12.35
2022-11-17T22:41:23.116Z,12.34
2022-11-17T22:43:51.771Z,12.29
2022-11-17T22:46:21.564Z,12.28
2022-11-17T22:48:49.755Z,12.39
2022-11-17T22:51:38.611Z,12.54
2022-11-17T22:54:09.037Z,12.59
2022-11-17T22:56:37.245Z,12.38
2022-11-17T22:59:05.427Z,12.31
2022-11-17T23:01:33.520Z,12.39
2022-11-17T23:04:01.442Z,12.44
2022-11-17T23:06:29.618Z,12.18
2022-11-17T23:08:58.582Z,12.14
2022-11-17T23:11:37.940Z,12.21
2022-11-17T23:14:07.583Z,11.87
2022-11-17T23:16:35.586Z,12.11
2022-11-17T23:19:03.586Z,12.19
2022-11-17T23:21:31.522Z,12.21
2022-11-17T23:23:59.627Z,12.18
2022-11-17T23:26:29.262Z,12.02
2022-11-17T23:28:58.058Z,11.71
2022-11-17T23:31:27.926Z,11.67
2022-11-17T23:33:56.320Z,11.74
2022-11-17T23:36:25.132Z,11.94
2022-11-17T23:38:53.725Z,11.94
2022-11-17T23:41:22.349Z,11.70
2022-11-17T23:43:54.033Z,11.46
2022-11-17T23:46:23.958Z,11.59
2022-11-17T23:48:52.316Z,11.56
2022-11-17T23:51:22.317Z,11.73
2022-11-17T23:53:50.482Z,11.77
2022-11-17T23:56:20.510Z,11.68
2022-11-17T23:58:48.941Z,11.39
